Time;durP1;ratioP1;P1;durP2;ratioP2;P2;SDS_P1;SDS_P2;PMS_P1;PMS_P2;Temp;Humidity;BMP_temperature;BMP_pressure;BME280_temperature;BME280_humidity;BME280_pressure;Samples;Min_cycle;Max_cycle;Signal;HPM_P1;HPM_P2
2022/08/24 00:00:04;;;;;;;3.87;2.17;;;21.10;99.90;;;;;;5075447;28;20197;-56
2022/08/24 00:02:31;;;;;;;4.00;2.10;;;21.00;99.90;;;;;;5075143;28;20228;-55
2022/08/24 00:04:58;;;;;;;5.23;2.47;;;21.00;99.90;;;;;;5075337;28;20365;-56
2022/08/24 00:07:25;;;;;;;6.57;2.80;;;20.90;99.90;;;;;;5075159;28;20205;-58
2022/08/24 00:09:52;;;;;;;4.53;2.53;;;20.90;99.90;;;;;;5075154;28;20225;-58
2022/08/24 00:12:19;;;;;;;3.30;2.27;;;20.90;99.90;;;;;;5075182;28;20554;-57
2022/08/24 00:14:47;;;;;;;4.47;2.70;;;20.80;99.90;;;;;;5075159;28;20258;-57
2022/08/24 00:17:14;;;;;;;5.43;2.20;;;20.80;99.90;;;;;;5074628;28;20262;-54
2022/08/24 00:19:41;;;;;;;4.70;2.27;;;20.80;99.90;;;;;;5074984;28;20217;-59
2022/08/24 00:22:08;;;;;;;5.77;2.80;;;20.70;99.90;;;;;;5075061;28;20251;-60
2022/08/24 00:24:35;;;;;;;5.40;2.43;;;20.60;99.90;;;;;;5075062;28;20207;-58
2022/08/24 00:27:02;;;;;;;6.00;2.10;;;20.60;99.90;;;;;;5074772;28;20255;-58
2022/08/24 00:29:29;;;;;;;3.90;2.17;;;20.60;99.90;;;;;;5074847;28;20228;-58
2022/08/24 00:31:57;;;;;;;3.40;2.20;;;20.60;99.90;;;;;;5074682;28;20213;-59
2022/08/24 00:34:24;;;;;;;3.77;2.07;;;20.60;99.90;;;;;;5074940;28;20274;-58
2022/08/24 00:36:52;;;;;;;4.37;2.30;;;20.60;99.90;;;;;;5074464;28;20292;-59
2022/08/24 00:39:18;;;;;;;5.07;2.20;;;20.60;99.90;;;;;;5074736;28;20207;-57
2022/08/24 00:41:49;;;;;;;5.07;2.23;;;20.60;99.90;;;;;;5074798;28;20205;-57
2022/08/24 00:44:17;;;;;;;2.80;2.00;;;20.50;99.90;;;;;;5074531;28;20225;-57
2022/08/24 00:46:49;;;;;;;6.00;2.37;;;20.50;99.90;;;;;;5074580;28;20201;-57
2022/08/24 00:49:24;;;;;;;3.50;1.97;;;20.50;99.90;;;;;;5074390;28;20649;-57
2022/08/24 00:51:57;;;;;;;4.43;2.27;;;20.50;99.90;;;;;;5074518;28;20254;-57
2022/08/24 00:54:28;;;;;;;4.70;2.77;;;20.50;99.90;;;;;;5074297;28;20278;-60
2022/08/24 00:56:59;;;;;;;5.93;2.40;;;20.40;99.90;;;;;;5074260;28;20259;-60
2022/08/24 00:59:28;;;;;;;3.50;2.17;;;20.40;99.90;;;;;;5074206;28;20196;-60
2022/08/24 01:01:57;;;;;;;4.87;2.70;;;20.40;99.90;;;;;;5074020;28;20205;-60
2022/08/24 01:04:38;;;;;;;6.17;2.67;;;20.40;99.90;;;;;;5074302;28;20270;-60
2022/08/24 01:07:05;;;;;;;5.17;2.90;;;20.50;99.90;;;;;;5073967;28;20258;-60
2022/08/24 01:09:32;;;;;;;6.13;2.73;;;20.50;99.90;;;;;;5073988;28;20221;-58
2022/08/24 01:11:58;;;;;;;4.90;2.90;;;20.40;99.90;;;;;;5074240;28;20737;-60
2022/08/24 01:14:25;;;;;;;5.27;2.30;;;20.50;99.90;;;;;;5074079;28;20229;-60
2022/08/24 01:19:42;;;;;;;6.20;2.53;;;20.50;99.90;;;;;;5074128;28;20203;-58
2022/08/24 01:22:36;;;;;;;8.00;2.30;;;20.50;99.90;;;;;;5073760;28;20592;-58
2022/08/24 01:25:05;;;;;;;4.70;2.50;;;20.50;99.90;;;;;;5074041;28;20274;-57
2022/08/24 01:27:33;;;;;;;3.43;2.13;;;20.50;99.90;;;;;;5073586;28;20202;-56
2022/08/24 01:30:03;;;;;;;4.83;2.20;;;20.40;99.90;;;;;;5073614;28;20768;-58
2022/08/24 01:32:30;;;;;;;4.10;2.37;;;20.40;99.90;;;;;;5073888;28;20316;-56
2022/08/24 01:34:58;;;;;;;3.63;2.07;;;20.30;99.90;;;;;;5073816;28;20209;-58
2022/08/24 01:37:25;;;;;;;6.20;2.13;;;20.20;99.90;;;;;;5073485;28;20292;-58
2022/08/24 01:39:55;;;;;;;5.17;2.63;;;20.20;99.90;;;;;;5073570;28;20588;-59
2022/08/24 01:42:25;;;;;;;4.10;2.30;;;20.20;99.90;;;;;;5073522;28;20645;-57
2022/08/24 01:44:52;;;;;;;6.93;2.47;;;20.20;99.90;;;;;;5073307;28;20229;-56
2022/08/24 01:47:18;;;;;;;4.07;2.20;;;20.20;99.90;;;;;;5073385;28;20205;-55
2022/08/24 01:49:48;;;;;;;6.80;2.40;;;20.20;99.90;;;;;;5073372;28;20270;-59
2022/08/24 01:52:19;;;;;;;2.60;1.97;;;20.20;99.90;;;;;;5072966;28;20204;-58
2022/08/24 01:54:46;;;;;;;3.43;2.30;;;20.20;99.90;;;;;;5073022;28;20231;-58
2022/08/24 01:57:13;;;;;;;4.53;2.27;;;20.20;99.90;;;;;;5072965;28;20258;-58
2022/08/24 01:59:41;;;;;;;5.37;2.30;;;20.10;99.90;;;;;;5073355;28;20227;-57
2022/08/24 02:02:15;;;;;;;5.20;2.50;;;20.10;99.90;;;;;;5073167;28;20201;-58
2022/08/24 02:04:42;;;;;;;4.73;2.10;;;20.10;99.90;;;;;;5073105;28;20261;-59
2022/08/24 02:07:09;;;;;;;4.83;2.93;;;20.10;99.90;;;;;;5072672;28;20236;-58
2022/08/24 02:09:37;;;;;;;6.13;2.80;;;20.10;99.90;;;;;;5072854;28;20217;-59
2022/08/24 02:12:05;;;;;;;5.57;2.43;;;20.10;99.90;;;;;;5071835;28;20212;-57
2022/08/24 02:14:32;;;;;;;3.60;2.30;;;20.10;99.90;;;;;;5073051;28;20648;-59
2022/08/24 02:17:01;;;;;;;5.10;2.10;;;20.10;99.90;;;;;;5072705;28;20264;-58
2022/08/24 02:19:28;;;;;;;4.30;2.00;;;20.10;99.90;;;;;;5072700;28;20217;-59
2022/08/24 02:21:54;;;;;;;4.40;2.10;;;20.10;99.90;;;;;;5072634;28;20212;-59
2022/08/24 02:24:22;;;;;;;3.83;2.27;;;20.10;99.90;;;;;;5072588;28;20229;-58
2022/08/24 02:26:49;;;;;;;5.70;2.40;;;20.10;99.90;;;;;;5072595;28;20217;-60
2022/08/24 02:29:16;;;;;;;5.33;2.10;;;20.00;99.90;;;;;;5072590;28;20228;-60
2022/08/24 02:31:43;;;;;;;5.30;2.53;;;20.00;99.90;;;;;;5072369;28;20233;-60
2022/08/24 02:34:11;;;;;;;3.50;2.50;;;20.00;99.90;;;;;;5072535;28;20316;-59
2022/08/24 02:36:38;;;;;;;6.20;2.07;;;20.00;99.90;;;;;;5072034;28;20676;-58
2022/08/24 02:39:06;;;;;;;5.03;2.50;;;19.90;99.90;;;;;;5071950;28;20555;-60
2022/08/24 02:41:32;;;;;;;3.47;2.27;;;19.90;99.90;;;;;;5072487;28;20262;-60
2022/08/24 02:44:00;;;;;;;4.10;2.17;;;19.90;99.90;;;;;;5072317;28;20255;-57
2022/08/24 02:46:29;;;;;;;4.70;2.27;;;19.90;99.90;;;;;;5072029;28;20209;-59
2022/08/24 02:48:57;;;;;;;5.80;2.70;;;19.90;99.90;;;;;;5072170;28;20256;-59
2022/08/24 02:51:27;;;;;;;5.50;2.20;;;19.90;99.90;;;;;;5072172;28;20201;-58
2022/08/24 02:53:54;;;;;;;7.27;2.53;;;19.80;99.90;;;;;;5072270;28;20233;-58
2022/08/24 02:56:20;;;;;;;6.63;3.17;;;19.80;99.90;;;;;;5072205;28;20370;-60
2022/08/24 02:58:48;;;;;;;3.50;2.23;;;19.80;99.90;;;;;;5072113;28;20208;-58
2022/08/24 03:01:16;;;;;;;4.13;2.20;;;19.80;99.90;;;;;;5072208;28;20628;-60
2022/08/24 03:03:43;;;;;;;3.33;2.10;;;19.80;99.90;;;;;;5071970;28;20225;-60
2022/08/24 03:06:09;;;;;;;6.83;2.40;;;19.90;99.90;;;;;;5071653;28;20250;-60
2022/08/24 03:08:37;;;;;;;4.03;2.40;;;19.90;99.90;;;;;;5071953;28;20204;-60
2022/08/24 03:11:07;;;;;;;6.67;2.67;;;19.80;99.90;;;;;;5072043;28;20224;-58
2022/08/24 03:13:34;;;;;;;4.77;2.50;;;19.80;99.90;;;;;;5071712;28;20719;-60
2022/08/24 03:16:00;;;;;;;3.63;2.23;;;19.80;99.90;;;;;;5071837;28;20205;-59
2022/08/24 03:18:28;;;;;;;6.17;2.60;;;19.80;99.90;;;;;;5071787;28;20255;-58
2022/08/24 03:20:55;;;;;;;7.13;2.43;;;19.70;99.90;;;;;;5071747;28;20204;-60
2022/08/24 03:23:23;;;;;;;3.60;2.27;;;19.70;99.90;;;;;;5071542;28;20233;-60
2022/08/24 03:25:51;;;;;;;3.10;2.20;;;19.70;99.90;;;;;;5071804;28;20762;-60
2022/08/24 03:28:18;;;;;;;4.07;2.33;;;19.80;99.90;;;;;;5071908;28;20204;-60
2022/08/24 03:30:45;;;;;;;3.60;2.53;;;19.80;99.90;;;;;;5073317;28;20302;-58
2022/08/24 03:33:12;;;;;;;7.53;2.87;;;19.80;99.90;;;;;;5074299;28;20233;-59
2022/08/24 03:35:38;;;;;;;3.57;2.50;;;19.70;99.90;;;;;;5072282;28;20621;-58
2022/08/24 03:38:06;;;;;;;4.23;2.67;;;19.70;99.90;;;;;;5071474;28;20291;-59
2022/08/24 03:40:33;;;;;;;5.30;3.10;;;19.70;99.90;;;;;;5071585;28;20584;-56
2022/08/24 03:43:01;;;;;;;7.13;2.60;;;19.60;99.90;;;;;;5071582;28;20254;-57
2022/08/24 03:45:29;;;;;;;4.20;2.50;;;19.60;99.90;;;;;;5071516;28;20205;-59
2022/08/24 03:47:56;;;;;;;4.47;2.70;;;19.60;99.90;;;;;;5071324;28;20213;-58
2022/08/24 03:50:24;;;;;;;5.47;2.33;;;19.60;99.90;;;;;;5071323;28;20707;-56
2022/08/24 03:52:51;;;;;;;4.00;2.47;;;19.70;99.90;;;;;;5071608;28;20224;-55
2022/08/24 03:55:18;;;;;;;6.80;2.90;;;19.70;99.90;;;;;;5071625;28;20266;-56
2022/08/24 03:57:45;;;;;;;7.33;3.00;;;19.80;99.90;;;;;;5071198;28;20205;-58
2022/08/24 04:00:15;;;;;;;4.87;2.77;;;19.80;99.90;;;;;;5071373;28;20251;-59
2022/08/24 04:02:43;;;;;;;5.30;2.70;;;19.70;99.90;;;;;;5071319;28;20750;-56
2022/08/24 04:05:11;;;;;;;7.17;2.90;;;19.70;99.90;;;;;;5071462;28;20207;-56
2022/08/24 04:07:38;;;;;;;4.23;2.77;;;19.70;99.90;;;;;;5071265;28;20212;-57
2022/08/24 04:10:05;;;;;;;9.07;2.63;;;19.80;99.90;;;;;;5071329;28;20221;-58
2022/08/24 04:12:32;;;;;;;3.03;2.73;;;19.70;99.90;;;;;;5071367;28;20655;-59
2022/08/24 04:14:58;;;;;;;6.50;3.03;;;19.70;99.90;;;;;;5071239;28;20263;-60
2022/08/24 04:17:27;;;;;;;6.67;2.50;;;19.70;99.90;;;;;;5071260;28;20616;-60
2022/08/24 04:19:59;;;;;;;5.70;2.93;;;19.70;99.90;;;;;;5071129;28;20213;-59
2022/08/24 04:22:28;;;;;;;4.93;2.77;;;19.70;99.90;;;;;;5071565;28;20224;-55
2022/08/24 04:24:55;;;;;;;3.80;2.50;;;19.80;99.90;;;;;;5071451;28;20568;-59
2022/08/24 04:27:22;;;;;;;4.90;2.63;;;19.70;99.90;;;;;;5070916;28;20209;-60
2022/08/24 04:29:49;;;;;;;5.70;2.70;;;19.70;99.90;;;;;;5071195;28;20703;-60
2022/08/24 04:32:17;;;;;;;6.83;3.00;;;19.70;99.90;;;;;;5070917;28;20595;-58
2022/08/24 04:34:45;;;;;;;6.13;2.53;;;19.70;99.90;;;;;;5071240;28;20270;-58
2022/08/24 04:37:12;;;;;;;6.73;3.00;;;19.60;99.90;;;;;;5074421;28;20244;-58
2022/08/24 04:39:40;;;;;;;5.03;2.67;;;19.60;99.90;;;;;;5074694;28;20224;-59
2022/08/24 04:42:08;;;;;;;10.67;3.10;;;19.60;99.90;;;;;;5074735;28;20209;-60
2022/08/24 04:44:34;;;;;;;5.07;3.10;;;19.60;99.90;;;;;;5074670;28;20744;-56
2022/08/24 04:47:01;;;;;;;5.67;3.00;;;19.60;99.90;;;;;;5074442;28;20213;-57
2022/08/24 04:49:29;;;;;;;3.43;2.87;;;19.60;99.90;;;;;;5074496;28;20235;-57
2022/08/24 04:51:57;;;;;;;7.93;2.77;;;19.60;99.90;;;;;;5074297;28;20209;-59
2022/08/24 04:54:25;;;;;;;7.53;2.80;;;19.70;99.90;;;;;;5074347;28;20225;-58
2022/08/24 04:56:51;;;;;;;8.40;3.17;;;19.70;99.90;;;;;;5074356;28;20733;-56
2022/08/24 04:59:18;;;;;;;10.10;3.17;;;19.80;99.90;;;;;;5074531;28;20258;-58
2022/08/24 05:01:45;;;;;;;6.80;2.97;;;19.90;99.90;;;;;;5074436;28;20250;-56
2022/08/24 05:04:12;;;;;;;7.17;2.80;;;19.90;99.90;;;;;;5074181;28;20232;-57
2022/08/24 05:06:41;;;;;;;5.30;3.97;;;19.90;99.90;;;;;;5073881;28;20209;-58
2022/08/24 05:09:11;;;;;;;56.10;38.27;;;19.90;99.90;;;;;;5074271;28;20694;-57
2022/08/24 05:11:39;;;;;;;7.10;5.03;;;19.90;99.90;;;;;;5074573;28;20240;-57
2022/08/24 05:14:06;;;;;;;4.47;3.33;;;19.90;99.90;;;;;;5074452;28;20257;-58
2022/08/24 05:16:36;;;;;;;5.23;2.87;;;19.90;99.90;;;;;;5074083;28;20394;-58
2022/08/24 05:19:03;;;;;;;4.10;3.13;;;19.90;99.90;;;;;;5073834;28;20300;-59
2022/08/24 05:21:30;;;;;;;7.10;3.50;;;19.90;99.90;;;;;;5073955;28;20262;-60
2022/08/24 05:23:57;;;;;;;6.33;3.60;;;20.00;99.90;;;;;;5073944;28;20229;-59
2022/08/24 05:26:27;;;;;;;4.93;3.50;;;20.00;99.90;;;;;;5073904;28;20258;-60
2022/08/24 05:28:55;;;;;;;6.30;3.60;;;20.00;99.90;;;;;;5073867;28;20209;-59
2022/08/24 05:31:24;;;;;;;9.53;3.43;;;20.00;99.90;;;;;;5073762;28;20641;-60
2022/08/24 05:33:51;;;;;;;4.77;3.20;;;20.00;99.90;;;;;;5073425;28;20229;-59
2022/08/24 05:36:21;;;;;;;5.30;3.40;;;20.00;99.90;;;;;;5073504;28;20209;-58
2022/08/24 05:38:49;;;;;;;3.87;2.90;;;20.00;99.90;;;;;;5073675;28;20205;-60
2022/08/24 05:41:16;;;;;;;4.43;3.00;;;20.00;99.90;;;;;;5073674;28;20288;-58
2022/08/24 05:43:44;;;;;;;7.53;3.60;;;20.00;99.90;;;;;;5073119;28;20225;-58
2022/08/24 05:46:11;;;;;;;4.47;3.67;;;20.10;99.90;;;;;;5073045;28;20205;-59
2022/08/24 05:48:38;;;;;;;6.73;3.50;;;20.10;99.90;;;;;;5073296;28;20211;-58
2022/08/24 05:51:06;;;;;;;5.87;3.83;;;20.10;99.90;;;;;;5073479;28;20279;-58
2022/08/24 05:53:33;;;;;;;9.03;4.03;;;20.20;99.90;;;;;;5073202;28;20229;-58
2022/08/24 05:56:02;;;;;;;9.83;4.00;;;20.20;99.90;;;;;;5073024;28;20690;-58
2022/08/24 05:58:29;;;;;;;6.07;3.30;;;20.20;99.90;;;;;;5073145;28;20208;-60
2022/08/24 06:00:58;;;;;;;6.90;3.40;;;20.20;99.90;;;;;;5073093;28;20266;-59
2022/08/24 06:03:25;;;;;;;7.83;3.37;;;20.20;99.90;;;;;;5073265;28;20606;-59
2022/08/24 06:05:53;;;;;;;5.67;3.77;;;20.30;99.90;;;;;;5072927;28;20671;-59
2022/08/24 06:08:20;;;;;;;7.87;4.10;;;20.40;99.90;;;;;;5073222;28;20266;-59
2022/08/24 06:10:47;;;;;;;5.87;3.47;;;20.40;99.90;;;;;;5072753;28;20216;-60
2022/08/24 06:13:14;;;;;;;11.80;3.57;;;20.40;99.90;;;;;;5072698;28;20229;-60
2022/08/24 06:15:42;;;;;;;5.83;3.23;;;20.40;99.90;;;;;;5072749;28;20304;-59
2022/08/24 06:18:10;;;;;;;5.13;2.63;;;20.50;99.90;;;;;;5072952;28;20205;-60
2022/08/24 06:20:40;;;;;;;4.97;3.20;;;20.50;99.90;;;;;;5072832;28;20243;-60
2022/08/24 06:23:07;;;;;;;7.87;3.20;;;20.60;99.90;;;;;;5072915;28;20221;-58
2022/08/24 06:28:18;;;;;;;6.97;3.67;;;20.70;99.90;;;;;;5072367;28;20574;-59
2022/08/24 06:30:45;;;;;;;6.90;4.00;;;20.70;99.90;;;;;;5072610;28;20290;-59
2022/08/24 06:33:13;;;;;;;3.27;2.83;;;20.80;99.90;;;;;;5072675;28;20229;-60
2022/08/24 06:35:40;;;;;;;9.07;3.53;;;20.80;99.90;;;;;;5072374;28;20205;-60
2022/08/24 06:38:07;;;;;;;5.83;3.33;;;20.80;99.90;;;;;;5072177;28;20213;-61
2022/08/24 06:40:33;;;;;;;9.67;3.53;;;20.90;99.90;;;;;;5072297;28;20732;-61
2022/08/24 06:43:02;;;;;;;6.47;3.47;;;21.10;99.90;;;;;;5072500;28;20225;-61
2022/08/24 06:45:29;;;;;;;5.80;3.43;;;21.30;99.90;;;;;;5072341;28;20205;-61
2022/08/24 06:47:56;;;;;;;5.47;3.57;;;21.30;99.90;;;;;;5072045;28;20205;-60
2022/08/24 06:50:24;;;;;;;5.50;3.07;;;21.30;99.90;;;;;;5072218;28;20217;-61
2022/08/24 06:52:51;;;;;;;4.87;3.70;;;21.40;99.90;;;;;;5072075;28;20294;-61
2022/08/24 06:55:18;;;;;;;5.43;3.00;;;21.40;99.90;;;;;;5072043;28;20643;-61
2022/08/24 06:57:45;;;;;;;5.30;3.30;;;21.50;99.90;;;;;;5070642;28;20740;-61
2022/08/24 07:00:12;;;;;;;5.27;3.23;;;21.50;99.90;;;;;;5072097;28;20266;-61
2022/08/24 07:02:41;;;;;;;8.70;3.60;;;21.60;99.90;;;;;;5071949;28;20224;-61
2022/08/24 07:05:08;;;;;;;4.80;3.03;;;21.60;99.90;;;;;;5072263;28;20292;-61
2022/08/24 07:07:36;;;;;;;5.70;3.40;;;21.70;99.90;;;;;;5071630;28;20658;-61
2022/08/24 07:10:04;;;;;;;7.63;3.30;;;21.70;99.90;;;;;;5072240;28;20557;-62
2022/08/24 07:12:30;;;;;;;3.80;3.00;;;21.70;99.90;;;;;;5071684;28;20723;-62
2022/08/24 07:14:57;;;;;;;6.40;3.20;;;21.80;99.90;;;;;;5071915;28;20258;-61
2022/08/24 07:17:24;;;;;;;5.07;2.90;;;21.80;99.90;;;;;;5071494;28;20213;-62
2022/08/24 07:19:51;;;;;;;8.37;3.30;;;21.90;99.90;;;;;;5071820;28;20209;-61
2022/08/24 07:22:17;;;;;;;5.30;3.07;;;22.00;99.90;;;;;;5071517;28;20204;-61
2022/08/24 07:24:46;;;;;;;4.93;2.90;;;22.20;99.90;;;;;;5071925;28;20205;-61
2022/08/24 07:27:13;;;;;;;6.43;3.23;;;22.40;99.90;;;;;;5071521;28;20243;-61
2022/08/24 07:29:40;;;;;;;7.97;3.17;;;22.60;99.90;;;;;;5071820;28;20295;-61
2022/08/24 07:32:08;;;;;;;4.97;2.80;;;22.80;99.90;;;;;;5071392;28;20225;-62
2022/08/24 07:34:36;;;;;;;6.27;3.07;;;22.90;99.90;;;;;;5071869;28;20209;-61
2022/08/24 07:37:02;;;;;;;4.20;2.97;;;23.10;99.90;;;;;;5071214;28;20209;-61
2022/08/24 07:39:29;;;;;;;10.37;3.03;;;23.30;99.90;;;;;;5071502;28;20208;-61
2022/08/24 07:41:58;;;;;;;11.57;3.27;;;23.50;99.90;;;;;;5071774;28;20291;-62
2022/08/24 07:44:25;;;;;;;10.17;3.50;;;23.60;99.90;;;;;;5071608;28;20229;-61
2022/08/24 07:46:51;;;;;;;6.80;3.40;;;23.80;99.90;;;;;;5071567;28;20262;-61
2022/08/24 07:49:18;;;;;;;4.70;3.03;;;24.10;99.90;;;;;;5071474;28;20559;-62
2022/08/24 07:51:44;;;;;;;10.37;2.90;;;24.30;99.90;;;;;;5071651;28;20232;-61
2022/08/24 07:54:12;;;;;;;5.90;2.97;;;24.40;99.90;;;;;;5071394;28;20254;-61
2022/08/24 07:56:39;;;;;;;5.47;3.00;;;24.60;99.90;;;;;;5071380;28;20649;-61
2022/08/24 07:59:07;;;;;;;4.30;2.90;;;24.80;99.90;;;;;;5071549;28;20201;-61
2022/08/24 08:01:33;;;;;;;4.03;2.63;;;24.90;99.90;;;;;;5071435;28;20259;-61
2022/08/24 08:04:00;;;;;;;6.87;3.17;;;25.00;99.90;;;;;;5071181;28;20759;-61
2022/08/24 08:06:27;;;;;;;8.23;3.10;;;25.10;99.90;;;;;;5071471;28;20258;-62
2022/08/24 08:08:53;;;;;;;4.27;2.90;;;25.10;99.90;;;;;;5071455;28;20266;-62
2022/08/24 08:11:20;;;;;;;4.20;3.03;;;25.30;99.90;;;;;;5073908;28;20228;-61
2022/08/24 08:13:47;;;;;;;4.93;2.80;;;25.30;99.90;;;;;;5075155;28;20228;-61
2022/08/24 08:16:15;;;;;;;4.13;2.60;;;25.40;99.90;;;;;;5074927;28;20668;-62
2022/08/24 08:18:42;;;;;;;4.47;2.50;;;25.50;99.90;;;;;;5075095;28;20204;-62
2022/08/24 08:24:13;;;;;;;5.80;2.77;;;25.70;99.90;;;;;;5074794;28;20209;-62
2022/08/24 08:26:41;;;;;;;3.73;3.00;;;25.90;99.90;;;;;;5074701;28;20227;-62
2022/08/24 08:29:09;;;;;;;2.73;2.50;;;25.90;99.90;;;;;;5074633;28;20209;-62
2022/08/24 08:31:37;;;;;;;6.97;2.67;;;26.00;99.90;;;;;;5075159;28;20650;-62
2022/08/24 08:34:04;;;;;;;4.60;3.30;;;26.10;99.90;;;;;;5075213;28;20228;-62
2022/08/24 08:36:32;;;;;;;4.20;2.90;;;26.10;99.90;;;;;;5074632;28;20744;-62
2022/08/24 08:39:00;;;;;;;5.57;3.00;;;26.20;99.90;;;;;;5074962;28;20205;-61
2022/08/24 08:42:01;;;;;;;3.80;2.43;;;26.30;99.90;;;;;;5074734;28;20205;-62
2022/08/24 08:44:42;;;;;;;4.43;2.80;;;26.30;99.90;;;;;;5061353;28;20252;-60
2022/08/24 08:47:32;;;;;;;6.60;2.70;;;26.20;99.90;;;;;;5074468;28;20209;-59
2022/08/24 08:50:12;;;;;;;5.23;2.90;;;26.20;99.90;;;;;;5074513;28;20209;-60
2022/08/24 08:53:15;;;;;;;4.17;2.50;;;26.30;99.90;;;;;;5074535;28;20229;-60
2022/08/24 08:55:47;;;;;;;5.17;2.80;;;26.30;99.90;;;;;;5071408;28;20258;-58
2022/08/24 08:58:28;;;;;;;7.60;3.30;;;26.40;99.90;;;;;;5065129;28;20209;-60
2022/08/24 09:01:04;;;;;;;5.03;2.83;;;26.60;99.90;;;;;;5073870;28;20213;-60
2022/08/24 09:03:58;;;;;;;7.87;3.03;;;26.70;99.90;;;;;;5073709;28;20582;-60
2022/08/24 09:06:42;;;;;;;3.60;3.30;;;26.70;99.90;;;;;;5073334;28;20217;-60
2022/08/24 09:09:25;;;;;;;9.67;3.13;;;26.70;99.90;;;;;;5073750;28;20285;-60
2022/08/24 09:12:03;;;;;;;5.83;2.77;;;27.00;99.90;;;;;;5069952;28;20225;-68
2022/08/24 09:15:03;;;;;;;6.13;2.77;;;27.10;99.90;;;;;;5052469;28;20233;-64
2022/08/24 09:17:44;;;;;;;4.67;2.43;;;27.30;99.90;;;;;;5053190;28;20733;-65
2022/08/24 09:20:25;;;;;;;5.37;2.93;;;27.30;99.90;;;;;;5053513;28;20801;-64
2022/08/24 09:23:05;;;;;;;5.57;3.00;;;27.40;99.90;;;;;;5052830;28;20303;-64
2022/08/24 09:25:41;;;;;;;5.77;2.93;;;27.60;99.90;;;;;;5053472;28;20267;-65
2022/08/24 09:28:27;;;;;;;5.13;3.03;;;27.80;99.90;;;;;;5053007;28;20209;-64
2022/08/24 09:31:09;;;;;;;6.53;3.10;;;27.90;99.90;;;;;;5053304;28;20209;-65
2022/08/24 09:33:41;;;;;;;9.27;2.83;;;28.00;99.90;;;;;;5053162;28;20225;-64
2022/08/24 09:36:12;;;;;;;8.40;3.40;;;28.10;99.90;;;;;;5052954;28;20300;-64
2022/08/24 09:39:05;;;;;;;8.93;2.63;;;28.10;99.90;;;;;;5052443;28;20209;-63
2022/08/24 09:42:02;;;;;;;11.33;2.83;;;28.20;99.90;;;;;;5052749;28;20800;-58
2022/08/24 09:45:10;;;;;;;6.50;2.80;;;28.20;99.90;;;;;;5053142;28;20584;-61
2022/08/24 09:48:13;;;;;;;6.27;2.50;;;28.40;99.90;;;;;;5052668;28;20212;-60
2022/08/24 09:51:24;;;;;;;4.83;1.93;;;28.30;99.90;;;;;;5052983;28;20271;-60
2022/08/24 09:54:33;;;;;;;5.30;2.00;;;28.40;99.90;;;;;;5052845;28;20249;-60
2022/08/24 09:57:28;;;;;;;3.00;1.67;;;28.50;99.90;;;;;;5052419;28;20206;-59
2022/08/24 10:00:08;;;;;;;6.97;2.67;;;28.60;99.90;;;;;;5052842;28;20620;-62
2022/08/24 10:03:00;;;;;;;5.40;2.23;;;28.60;99.90;;;;;;5052580;28;20225;-62
2022/08/24 10:05:35;;;;;;;7.33;2.03;;;28.70;99.90;;;;;;5052834;28;20659;-63
2022/08/24 10:08:14;;;;;;;5.70;2.13;;;28.90;99.90;;;;;;5052218;28;20205;-61
2022/08/24 10:10:49;;;;;;;5.67;2.13;;;28.90;99.90;;;;;;5052587;28;20260;-59
2022/08/24 10:13:24;;;;;;;7.00;2.23;;;28.80;99.90;;;;;;5052356;28;20286;-59
2022/08/24 10:16:06;;;;;;;5.43;2.10;;;28.70;99.90;;;;;;5052731;28;20205;-59
2022/08/24 10:18:43;;;;;;;6.03;2.47;;;28.80;99.90;;;;;;5052093;28;20210;-60
2022/08/24 10:21:20;;;;;;;6.03;2.10;;;28.80;99.90;;;;;;5052441;28;20267;-64
2022/08/24 10:24:05;;;;;;;6.07;2.40;;;28.80;99.90;;;;;;5052191;28;20256;-64
2022/08/24 10:26:48;;;;;;;5.60;2.50;;;28.90;99.90;;;;;;5051811;28;20859;-64
2022/08/24 10:29:33;;;;;;;5.83;2.30;;;29.10;99.90;;;;;;5051865;28;20205;-63
2022/08/24 10:32:18;;;;;;;4.67;2.20;;;29.20;99.90;;;;;;5051936;28;20230;-63
2022/08/24 10:35:01;;;;;;;8.17;2.40;;;29.30;99.90;;;;;;5052028;28;20209;-63
2022/08/24 10:39:39;;;;;;;4.57;2.30;;;29.20;99.90;;;;;;5052059;28;20255;-62
2022/08/24 10:40:59;;;;;;;7.97;2.60;;;29.10;99.90;;;;;;5034858;28;20209;-60
2022/08/24 10:44:05;;;;;;;4.30;2.27;;;29.30;99.90;;;;;;5051894;28;20312;-59
2022/08/24 10:46:44;;;;;;;6.37;2.50;;;29.30;99.90;;;;;;5029186;28;20216;-59
2022/08/24 10:49:56;;;;;;;7.47;2.90;;;29.30;99.90;;;;;;5071362;28;20204;-63
2022/08/24 10:52:53;;;;;;;5.00;2.73;;;29.50;99.90;;;;;;5071467;28;20254;-63
2022/08/24 10:55:26;;;;;;;4.43;2.08;;;29.60;99.90;;;;;;5071633;28;20199;-62
2022/08/24 10:58:13;;;;;;;5.90;2.35;;;29.50;99.90;;;;;;5071305;28;20292;-62
2022/08/24 11:00:40;;;;;;;4.87;2.90;;;29.50;99.90;;;;;;5071728;28;20216;-58
2022/08/24 11:03:10;;;;;;;5.40;2.53;;;29.40;99.90;;;;;;5071629;28;20233;-57
2022/08/24 11:05:44;;;;;;;4.20;2.40;;;29.30;99.90;;;;;;5071499;28;20211;-57
2022/08/24 11:08:19;;;;;;;4.80;2.07;;;29.40;99.90;;;;;;5070947;28;20912;-58
2022/08/24 11:10:47;;;;;;;4.23;2.40;;;29.30;99.90;;;;;;5071518;28;20292;-58
2022/08/24 11:13:20;;;;;;;7.20;2.47;;;29.40;99.90;;;;;;5071477;28;20229;-55
2022/08/24 11:15:50;;;;;;;5.63;2.70;;;29.60;99.90;;;;;;5070536;28;20255;-57
2022/08/24 11:18:17;;;;;;;6.60;2.97;;;29.60;99.90;;;;;;5070496;28;20645;-57
2022/08/24 11:20:47;;;;;;;5.50;2.65;;;29.80;99.90;;;;;;5071276;28;20710;-61
2022/08/24 11:23:20;;;;;;;7.43;4.03;;;29.90;99.90;;;;;;5071201;28;20229;-62
2022/08/24 11:25:56;;;;;;;5.37;2.70;;;29.90;99.90;;;;;;5071592;28;20643;-60
2022/08/24 11:28:29;;;;;;;7.10;2.63;;;29.90;99.90;;;;;;5071083;28;20287;-59
2022/08/24 11:30:56;;;;;;;6.95;3.22;;;29.80;99.90;;;;;;5072124;28;20694;-61
2022/08/24 11:33:30;;;;;;;8.07;4.40;;;29.80;99.90;;;;;;5071395;28;20258;-58
2022/08/24 11:35:59;;;;;;;7.25;3.00;;;29.70;99.90;;;;;;5071669;28;20200;-58
2022/08/24 11:38:30;;;;;;;4.78;2.80;;;29.80;99.90;;;;;;5071042;28;20201;-56
2022/08/24 11:41:01;;;;;;;6.30;2.50;;;30.00;99.90;;;;;;5071406;28;20208;-58
2022/08/24 11:43:42;;;;;;;4.40;2.65;;;30.00;99.90;;;;;;5071153;28;20221;-62
2022/08/24 11:46:21;;;;;;;3.50;2.05;;;30.20;99.90;;;;;;5075260;28;20208;-63
2022/08/24 11:49:01;;;;;;;4.22;2.35;;;30.10;99.90;;;;;;5075050;28;20250;-62
2022/08/24 11:51:37;;;;;;;6.60;2.55;;;30.10;99.90;;;;;;5075454;28;20588;-62
2022/08/24 11:54:13;;;;;;;4.25;2.53;;;30.20;99.90;;;;;;5075391;28;20270;-59
2022/08/24 11:56:50;;;;;;;6.50;2.60;;;30.20;99.90;;;;;;5075109;28;20208;-60
2022/08/24 11:59:26;;;;;;;5.82;2.60;;;30.20;99.90;;;;;;5074641;28;20765;-60
2022/08/24 12:01:57;;;;;;;9.40;2.80;;;30.30;99.90;;;;;;5075345;28;20258;-61
2022/08/24 12:04:41;;;;;;;5.18;2.75;;;30.30;99.90;;;;;;5074762;28;20711;-61
2022/08/24 12:07:19;;;;;;;7.32;2.72;;;30.50;99.90;;;;;;5074797;28;20212;-62
2022/08/24 12:10:00;;;;;;;4.47;2.75;;;30.50;99.90;;;;;;5070528;28;20208;-62
2022/08/24 12:12:32;;;;;;;3.88;2.42;;;30.50;99.90;;;;;;5074626;28;20232;-61
2022/08/24 12:15:04;;;;;;;5.90;2.50;;;30.60;99.90;;;;;;5075022;28;20300;-61
2022/08/24 12:17:38;;;;;;;5.78;2.47;;;30.70;99.90;;;;;;5074363;28;20209;-60
2022/08/24 12:20:14;;;;;;;5.25;2.75;;;30.70;99.90;;;;;;5074537;28;20220;-62
2022/08/24 12:22:41;;;;;;;3.42;2.53;;;30.80;99.90;;;;;;5074325;28;20293;-63
2022/08/24 12:27:54;;;;;;;6.95;2.58;;;30.50;99.90;;;;;;5073618;28;20208;-62
2022/08/24 12:30:22;;;;;;;6.75;2.80;;;30.50;99.90;;;;;;5074576;28;20204;-62
2022/08/24 12:32:53;;;;;;;5.15;2.72;;;30.70;99.90;;;;;;5074010;28;20781;-62
2022/08/24 12:35:26;;;;;;;6.07;2.47;;;30.80;99.90;;;;;;5074542;28;20208;-62
2022/08/24 12:37:57;;;;;;;4.07;2.70;;;30.90;99.90;;;;;;5073815;28;20307;-63
2022/08/24 12:40:29;;;;;;;5.82;2.85;;;30.90;99.90;;;;;;5073734;28;20273;-62
2022/08/24 12:43:00;;;;;;;5.25;2.50;;;31.10;99.90;;;;;;5074232;28;20282;-64
2022/08/24 12:45:28;;;;;;;6.20;2.35;;;31.10;99.90;;;;;;5074301;28;20627;-63
2022/08/24 12:48:03;;;;;;;4.80;2.45;;;31.10;99.90;;;;;;5074055;28;20211;-62
2022/08/24 12:50:39;;;;;;;4.45;2.42;;;31.10;99.90;;;;;;5074089;28;20225;-60
2022/08/24 12:53:37;;;;;;;4.97;2.58;;;30.90;99.90;;;;;;5074452;28;20229;-59
2022/08/24 12:56:48;;;;;;;4.10;2.70;;;30.70;99.90;;;;;;5072982;28;20209;-60
2022/08/24 12:59:22;;;;;;;5.38;2.47;;;30.80;99.90;;;;;;5011425;28;20261;-59
2022/08/24 13:02:00;;;;;;;6.28;2.75;;;30.80;99.90;;;;;;5067890;28;20213;-58
2022/08/24 13:04:37;;;;;;;5.22;2.80;;;30.80;99.90;;;;;;5073620;28;20319;-59
2022/08/24 13:07:08;;;;;;;5.68;2.55;;;30.80;99.90;;;;;;5073709;28;20200;-59
2022/08/24 13:09:38;;;;;;;3.45;2.50;;;30.80;99.90;;;;;;5073639;28;20205;-59
2022/08/24 13:12:42;;;;;;;6.25;3.00;;;31.00;99.90;;;;;;5072871;28;20213;-56
2022/08/24 13:15:51;;;;;;;6.63;2.40;;;31.10;99.90;;;;;;5074411;28;20204;-57
2022/08/24 13:18:42;;;;;;;5.15;2.75;;;31.20;99.90;;;;;;5073864;28;20213;-58
2022/08/24 13:21:16;;;;;;;6.10;2.60;;;31.10;99.90;;;;;;5073784;28;20213;-59